createdAt,value
2019-05-26T00:00:07.802Z,0.00
2019-05-26T00:01:07.750Z,0.00
2019-05-26T00:02:07.696Z,0.00
2019-05-26T00:03:07.642Z,0.00
2019-05-26T00:04:07.596Z,0.00
2019-05-26T00:05:07.574Z,0.00
2019-05-26T00:06:07.487Z,0.00
2019-05-26T00:07:07.437Z,0.00
2019-05-26T00:08:07.386Z,0.00
2019-05-26T00:09:07.333Z,0.00
2019-05-26T00:10:07.318Z,0.00
2019-05-26T00:11:07.229Z,0.00
2019-05-26T00:12:07.177Z,0.00
2019-05-26T00:13:07.127Z,0.00
2019-05-26T00:14:07.072Z,0.00
2019-05-26T00:15:07.041Z,0.00
2019-05-26T00:16:06.969Z,0.00
2019-05-26T00:17:06.917Z,0.00
2019-05-26T00:18:06.867Z,0.00
2019-05-26T00:19:06.818Z,0.00
2019-05-26T00:20:06.782Z,0.00
2019-05-26T00:21:06.710Z,0.00
2019-05-26T00:22:06.657Z,0.00
2019-05-26T00:23:06.605Z,0.00
2019-05-26T00:24:06.562Z,0.00
2019-05-26T00:25:06.523Z,0.00
2019-05-26T00:26:06.452Z,0.00
2019-05-26T00:27:06.402Z,0.00
2019-05-26T00:28:06.346Z,0.00
2019-05-26T00:29:06.299Z,0.00
2019-05-26T00:30:06.262Z,0.00
2019-05-26T00:31:06.192Z,0.00
2019-05-26T00:32:06.137Z,0.00
2019-05-26T00:33:06.086Z,0.00
2019-05-26T00:34:06.034Z,0.00
2019-05-26T00:35:06.007Z,0.00
2019-05-26T00:36:05.929Z,0.00
2019-05-26T00:37:05.880Z,0.00
2019-05-26T00:38:05.878Z,0.00
2019-05-26T00:39:05.779Z,0.00
2019-05-26T00:40:05.747Z,0.00
2019-05-26T00:41:05.670Z,0.00
2019-05-26T00:42:05.616Z,0.00
2019-05-26T00:43:05.565Z,0.00
2019-05-26T00:44:05.519Z,0.00
2019-05-26T00:45:05.488Z,0.00
2019-05-26T00:46:05.410Z,0.00
2019-05-26T00:47:05.360Z,0.00
2019-05-26T00:48:05.306Z,0.00
2019-05-26T00:49:05.251Z,0.00
2019-05-26T00:50:05.226Z,0.00
2019-05-26T00:51:05.148Z,0.00
2019-05-26T00:52:05.099Z,0.00
2019-05-26T00:53:05.047Z,0.00
2019-05-26T00:54:04.993Z,0.00
2019-05-26T00:55:04.966Z,0.00
2019-05-26T00:56:04.890Z,0.00
2019-05-26T00:57:04.839Z,0.00
2019-05-26T00:58:04.786Z,0.00
2019-05-26T00:59:04.732Z,0.00
2019-05-26T01:00:04.703Z,0.00
2019-05-26T01:01:04.630Z,0.00
2019-05-26T01:02:04.580Z,0.00
2019-05-26T01:03:04.524Z,0.00
2019-05-26T01:04:04.475Z,0.00
2019-05-26T01:05:04.445Z,0.00
2019-05-26T01:06:04.369Z,0.00
2019-05-26T01:07:04.315Z,0.00
2019-05-26T01:08:06.553Z,0.00
2019-05-26T01:09:04.213Z,0.00
2019-05-26T01:10:04.182Z,0.00
2019-05-26T01:11:04.115Z,0.00
2019-05-26T01:12:04.057Z,0.00
2019-05-26T01:13:04.008Z,0.00
2019-05-26T01:14:03.955Z,0.00
2019-05-26T01:15:03.929Z,0.00
2019-05-26T01:16:03.864Z,0.00
2019-05-26T01:17:03.796Z,0.00
2019-05-26T01:18:03.745Z,0.00
2019-05-26T01:19:03.696Z,0.00
2019-05-26T01:20:03.665Z,0.00
2019-05-26T01:21:03.594Z,0.00
2019-05-26T01:22:03.537Z,0.00
2019-05-26T01:23:03.488Z,0.00
2019-05-26T01:24:03.437Z,0.00
2019-05-26T01:25:03.414Z,0.00
2019-05-26T01:26:03.329Z,0.00
2019-05-26T01:27:03.279Z,0.00
2019-05-26T01:28:03.233Z,0.00
2019-05-26T01:29:03.175Z,0.00
2019-05-26T01:30:03.200Z,0.00
2019-05-26T01:31:03.076Z,0.00
2019-05-26T01:32:03.029Z,0.00
2019-05-26T01:33:02.968Z,0.00
2019-05-26T01:34:02.920Z,0.00
2019-05-26T01:35:02.873Z,0.00
2019-05-26T01:36:02.839Z,0.00
2019-05-26T01:37:02.787Z,0.00
2019-05-26T01:38:02.709Z,0.00
2019-05-26T01:39:02.654Z,0.00
2019-05-26T01:40:02.605Z,0.00
2019-05-26T01:41:02.581Z,0.00
2019-05-26T01:42:02.506Z,0.00
2019-05-26T01:43:02.448Z,0.00
2019-05-26T01:44:02.428Z,0.00
2019-05-26T01:45:02.343Z,0.00
2019-05-26T01:46:02.324Z,0.00
2019-05-26T01:47:02.240Z,0.00
2019-05-26T01:48:02.189Z,0.00
2019-05-26T01:49:02.137Z,0.00
2019-05-26T01:50:02.087Z,0.00
2019-05-26T01:51:02.060Z,0.00
2019-05-26T01:52:01.984Z,0.00
2019-05-26T01:53:01.951Z,0.00
2019-05-26T01:54:01.880Z,0.00
2019-05-26T01:55:01.827Z,0.00
2019-05-26T01:56:01.795Z,0.00
2019-05-26T01:57:01.725Z,0.00
2019-05-26T01:58:01.670Z,0.00
2019-05-26T01:59:01.617Z,0.00
2019-05-26T02:00:01.570Z,0.00
2019-05-26T02:01:01.538Z,0.00
2019-05-26T02:02:01.464Z,0.00
2019-05-26T02:03:01.409Z,0.00
2019-05-26T02:04:01.360Z,0.00
2019-05-26T02:05:01.310Z,0.00
2019-05-26T02:06:01.280Z,0.00
2019-05-26T02:07:01.204Z,0.00
2019-05-26T02:08:01.155Z,0.00
2019-05-26T02:09:01.102Z,0.00
2019-05-26T02:10:01.047Z,0.00
2019-05-26T02:11:01.019Z,0.00
2019-05-26T02:12:00.948Z,0.00
2019-05-26T02:13:00.893Z,0.00
2019-05-26T02:14:00.842Z,0.00
2019-05-26T02:15:00.792Z,0.00
2019-05-26T02:16:00.761Z,0.00
2019-05-26T02:17:00.686Z,0.00
2019-05-26T02:18:00.632Z,0.00
2019-05-26T02:19:00.584Z,0.00
2019-05-26T02:20:00.531Z,0.00
2019-05-26T02:21:00.499Z,0.00
2019-05-26T02:22:00.431Z,0.00
2019-05-26T02:23:00.381Z,0.00
2019-05-26T02:24:00.363Z,0.00
2019-05-26T02:25:00.270Z,0.00
2019-05-26T02:26:00.243Z,0.00
2019-05-26T02:27:00.173Z,0.00
2019-05-26T02:28:00.115Z,0.00
2019-05-26T02:29:00.065Z,0.00
2019-05-26T02:30:00.017Z,0.00
2019-05-26T02:30:59.990Z,0.00
2019-05-26T02:31:59.912Z,0.00
2019-05-26T02:32:59.860Z,0.00
2019-05-26T02:33:59.808Z,0.00
2019-05-26T02:34:59.758Z,0.00
2019-05-26T02:35:59.728Z,0.00
2019-05-26T02:36:59.651Z,0.00
2019-05-26T02:37:59.600Z,0.00
2019-05-26T02:39:02.688Z,0.00
2019-05-26T02:39:59.496Z,0.00
2019-05-26T02:40:59.652Z,0.00
2019-05-26T02:41:59.397Z,0.00
2019-05-26T02:42:59.347Z,0.00
2019-05-26T02:43:59.304Z,0.00
2019-05-26T02:44:59.626Z,0.00
2019-05-26T02:45:59.213Z,0.00
2019-05-26T02:46:59.157Z,0.00
2019-05-26T02:47:59.091Z,0.00
2019-05-26T02:48:59.034Z,0.00
2019-05-26T02:49:58.977Z,4.00
2019-05-26T02:50:58.949Z,4.00
2019-05-26T02:51:58.909Z,4.00
2019-05-26T02:52:58.825Z,0.00
2019-05-26T02:53:58.779Z,4.00
2019-05-26T02:54:58.721Z,4.00
2019-05-26T02:55:58.672Z,4.00
2019-05-26T02:56:58.640Z,4.00
2019-05-26T02:57:58.565Z,4.00
2019-05-26T02:58:58.515Z,8.00
2019-05-26T02:59:58.466Z,8.00
2019-05-26T03:00:58.410Z,8.00
2019-05-26T03:02:03.586Z,8.00
2019-05-26T03:02:58.319Z,12.00
2019-05-26T03:03:58.257Z,12.00
2019-05-26T03:04:58.206Z,12.00
2019-05-26T03:05:58.150Z,12.00
2019-05-26T03:06:58.122Z,12.00
2019-05-26T03:07:58.048Z,16.00
2019-05-26T03:08:57.993Z,16.00
2019-05-26T03:09:57.957Z,20.00
2019-05-26T03:10:57.891Z,24.00
2019-05-26T03:11:57.862Z,24.00
2019-05-26T03:12:57.790Z,28.00
2019-05-26T03:13:57.738Z,28.00
2019-05-26T03:14:57.687Z,28.00
2019-05-26T03:15:57.643Z,32.00
2019-05-26T03:16:57.602Z,32.00
2019-05-26T03:17:57.535Z,36.00
2019-05-26T03:18:57.478Z,40.00
2019-05-26T03:19:57.431Z,44.00
2019-05-26T03:20:57.370Z,48.00
2019-05-26T03:21:57.342Z,52.00
2019-05-26T03:22:57.265Z,52.00
2019-05-26T03:23:57.218Z,56.00
2019-05-26T03:24:57.164Z,60.00
2019-05-26T03:25:57.115Z,68.00
2019-05-26T03:26:57.085Z,72.00
2019-05-26T03:27:57.009Z,72.00
2019-05-26T03:28:56.963Z,80.00
2019-05-26T03:29:56.908Z,84.00
2019-05-26T03:30:56.853Z,88.00
2019-05-26T03:31:56.845Z,96.00
2019-05-26T03:32:56.749Z,96.00
2019-05-26T03:33:56.699Z,100.00
2019-05-26T03:34:56.645Z,104.00
2019-05-26T03:35:56.597Z,104.00
2019-05-26T03:36:56.562Z,112.00
2019-05-26T03:37:56.502Z,116.00
2019-05-26T03:38:56.439Z,120.00
2019-05-26T03:39:56.386Z,128.00
2019-05-26T03:40:56.340Z,132.00
2019-05-26T03:41:56.304Z,140.00
2019-05-26T03:42:56.233Z,148.00
2019-05-26T03:43:56.181Z,156.00
2019-05-26T03:44:56.140Z,164.00
2019-05-26T03:45:56.075Z,180.00
2019-05-26T03:46:56.050Z,188.00
2019-05-26T03:47:55.979Z,196.00
2019-05-26T03:48:55.922Z,208.00
2019-05-26T03:49:55.866Z,216.00
2019-05-26T03:50:55.816Z,220.00
2019-05-26T03:51:55.785Z,224.00
2019-05-26T03:52:55.711Z,224.00
2019-05-26T03:53:55.664Z,232.00
2019-05-26T03:54:55.616Z,244.00
2019-05-26T03:55:55.556Z,260.00
2019-05-26T03:56:55.530Z,272.00
2019-05-26T03:57:55.449Z,288.00
2019-05-26T03:58:55.398Z,300.00
2019-05-26T03:59:55.350Z,312.00
2019-05-26T04:00:55.293Z,320.00
2019-05-26T04:01:57.601Z,328.00
2019-05-26T04:02:55.189Z,336.00
2019-05-26T04:03:55.138Z,344.00
2019-05-26T04:04:55.086Z,360.00
2019-05-26T04:05:55.034Z,376.00
2019-05-26T04:06:55.014Z,396.00
2019-05-26T04:07:54.930Z,416.00
2019-05-26T04:08:54.879Z,440.00
2019-05-26T04:10:04.457Z,468.00
2019-05-26T04:10:54.774Z,496.00
2019-05-26T04:11:54.745Z,516.00
2019-05-26T04:12:54.673Z,544.00
2019-05-26T04:13:54.616Z,564.00
2019-05-26T04:14:54.569Z,588.00
2019-05-26T04:15:54.513Z,620.00
2019-05-26T04:16:56.352Z,652.00
2019-05-26T04:17:54.411Z,680.00
2019-05-26T04:18:54.360Z,704.00
2019-05-26T04:19:54.332Z,732.00
2019-05-26T04:20:54.256Z,752.00
2019-05-26T04:21:54.204Z,772.00
2019-05-26T04:22:54.173Z,808.00
2019-05-26T04:23:54.100Z,808.00
2019-05-26T04:24:54.047Z,832.00
2019-05-26T04:25:53.993Z,852.00
2019-05-26T04:26:53.948Z,864.00
2019-05-26T04:27:53.914Z,860.00
2019-05-26T04:28:53.848Z,860.00
2019-05-26T04:29:53.787Z,876.00
2019-05-26T04:30:53.733Z,888.00
2019-05-26T04:31:53.685Z,900.00
2019-05-26T04:32:53.652Z,916.00
2019-05-26T04:33:53.673Z,956.00
2019-05-26T04:34:53.530Z,1028.00
2019-05-26T04:35:53.475Z,1128.00
2019-05-26T04:36:53.428Z,1228.00
2019-05-26T04:37:53.397Z,1320.00
2019-05-26T04:38:53.319Z,1432.00
2019-05-26T04:39:53.271Z,1560.00
2019-05-26T04:40:53.229Z,1592.00
2019-05-26T04:41:53.167Z,1656.00
2019-05-26T04:42:53.138Z,1688.00
2019-05-26T04:43:53.059Z,1780.00
2019-05-26T04:44:53.008Z,1992.00
2019-05-26T04:45:52.958Z,2092.00
2019-05-26T04:46:52.906Z,2156.00
2019-05-26T04:47:52.888Z,2304.00
2019-05-26T04:48:52.806Z,2580.00
2019-05-26T04:49:52.752Z,2724.00
2019-05-26T04:50:52.702Z,2644.00
2019-05-26T04:51:52.651Z,2520.00
2019-05-26T04:53:05.260Z,2456.00
2019-05-26T04:53:52.546Z,2416.00
2019-05-26T04:54:52.496Z,2272.00
2019-05-26T04:55:52.445Z,2180.00
2019-05-26T04:56:52.394Z,2100.00
2019-05-26T04:57:52.368Z,2244.00
2019-05-26T04:58:52.293Z,1976.00
2019-05-26T04:59:52.245Z,1792.00
2019-05-26T05:00:52.186Z,1628.00
2019-05-26T05:01:52.138Z,1560.00
2019-05-26T05:02:52.109Z,1484.00
2019-05-26T05:03:52.034Z,1472.00
2019-05-26T05:04:51.982Z,1428.00
2019-05-26T05:05:51.940Z,1372.00
2019-05-26T05:06:51.881Z,1500.00
2019-05-26T05:07:51.859Z,1544.00
2019-05-26T05:08:51.781Z,1624.00
2019-05-26T05:09:51.732Z,1716.00
2019-05-26T05:10:51.677Z,1768.00
2019-05-26T05:11:51.630Z,1792.00
2019-05-26T05:12:51.598Z,1748.00
2019-05-26T05:13:51.531Z,1740.00
2019-05-26T05:14:51.530Z,1776.00
2019-05-26T05:15:51.427Z,1800.00
2019-05-26T05:16:51.373Z,1768.00
2019-05-26T05:17:51.343Z,1724.00
2019-05-26T05:18:51.274Z,1684.00
2019-05-26T05:19:51.290Z,1636.00
2019-05-26T05:20:51.169Z,1592.00
2019-05-26T05:21:51.120Z,1544.00
2019-05-26T05:22:51.090Z,1504.00
2019-05-26T05:23:51.014Z,1420.00
2019-05-26T05:24:50.966Z,1396.00
2019-05-26T05:25:50.917Z,1392.00
2019-05-26T05:26:50.864Z,1416.00
2019-05-26T05:27:50.859Z,1516.00
2019-05-26T05:28:50.759Z,1536.00
2019-05-26T05:29:50.711Z,1460.00
2019-05-26T05:30:50.659Z,1368.00
2019-05-26T05:31:50.607Z,1412.00
2019-05-26T05:32:50.579Z,1488.00
2019-05-26T05:33:50.506Z,1556.00
2019-05-26T05:34:50.458Z,1512.00
2019-05-26T05:35:50.407Z,1512.00
2019-05-26T05:36:50.356Z,1520.00
2019-05-26T05:37:50.325Z,1520.00
2019-05-26T05:38:50.252Z,1612.00
2019-05-26T05:39:50.202Z,1692.00
2019-05-26T05:40:59.658Z,1768.00
2019-05-26T05:41:50.098Z,1800.00
2019-05-26T05:42:50.075Z,1868.00
2019-05-26T05:43:49.997Z,2044.00
2019-05-26T05:44:49.944Z,2264.00
2019-05-26T05:45:49.895Z,2304.00
2019-05-26T05:46:49.847Z,2384.00
2019-05-26T05:47:49.820Z,2536.00
2019-05-26T05:48:49.741Z,2944.00
2019-05-26T05:49:49.691Z,2928.00
2019-05-26T05:50:49.644Z,2884.00
2019-05-26T05:51:49.589Z,2728.00
2019-05-26T05:52:49.564Z,2512.00
2019-05-26T05:53:49.488Z,2656.00
2019-05-26T05:54:49.437Z,2368.00
2019-05-26T05:55:49.387Z,2192.00
2019-05-26T05:56:49.338Z,2796.00
2019-05-26T05:57:49.343Z,3268.00
2019-05-26T05:58:49.236Z,3408.00
2019-05-26T05:59:49.184Z,3468.00
2019-05-26T06:00:49.133Z,3536.00
2019-05-26T06:01:49.095Z,3536.00
2019-05-26T06:02:49.033Z,3412.00
2019-05-26T06:03:49.007Z,3548.00
2019-05-26T06:04:48.934Z,3428.00
2019-05-26T06:05:48.885Z,3220.00
2019-05-26T06:06:48.833Z,3308.00
2019-05-26T06:07:48.852Z,3132.00
2019-05-26T06:08:48.755Z,2608.00
2019-05-26T06:09:48.683Z,2444.00
2019-05-26T06:10:48.636Z,2504.00
2019-05-26T06:11:53.076Z,2344.00
2019-05-26T06:12:48.534Z,2436.00
2019-05-26T06:13:48.504Z,3000.00
2019-05-26T06:14:48.432Z,3744.00
2019-05-26T06:15:48.388Z,3440.00
2019-05-26T06:16:48.336Z,3536.00
2019-05-26T06:17:48.319Z,4012.00
2019-05-26T06:18:48.255Z,4520.00
2019-05-26T06:19:48.183Z,4156.00
2019-05-26T06:20:48.131Z,4580.00
2019-05-26T06:21:48.082Z,4132.00
2019-05-26T06:22:48.034Z,3832.00
2019-05-26T06:23:48.007Z,3992.00
2019-05-26T06:24:47.939Z,4724.00
2019-05-26T06:25:47.887Z,5432.00
2019-05-26T06:26:47.837Z,3688.00
2019-05-26T06:27:47.788Z,4256.00
2019-05-26T06:28:47.758Z,4264.00
2019-05-26T06:29:58.587Z,4700.00
2019-05-26T06:30:47.645Z,4340.00
2019-05-26T06:31:47.751Z,3248.00
2019-05-26T06:32:47.541Z,3112.00
2019-05-26T06:33:47.517Z,2880.00
2019-05-26T06:34:47.442Z,2880.00
2019-05-26T06:35:47.394Z,2860.00
2019-05-26T06:36:47.345Z,2880.00
2019-05-26T06:37:47.293Z,2988.00
2019-05-26T06:38:47.267Z,3028.00
2019-05-26T06:39:47.199Z,3076.00
2019-05-26T06:40:47.149Z,3056.00
2019-05-26T06:41:47.099Z,3088.00
2019-05-26T06:42:47.049Z,2980.00
2019-05-26T06:43:47.023Z,2972.00
2019-05-26T06:44:53.643Z,2776.00
2019-05-26T06:45:46.904Z,2984.00
2019-05-26T06:46:46.854Z,3020.00
2019-05-26T06:47:46.807Z,3088.00
2019-05-26T06:48:46.777Z,2924.00
2019-05-26T06:49:46.705Z,3012.00
2019-05-26T06:50:46.659Z,3028.00
2019-05-26T06:51:46.618Z,3120.00
2019-05-26T06:52:46.560Z,3064.00
2019-05-26T06:53:46.534Z,3096.00
2019-05-26T06:54:46.465Z,3136.00
2019-05-26T06:55:46.413Z,3208.00
2019-05-26T06:56:46.376Z,3436.00
2019-05-26T06:57:46.321Z,3548.00
2019-05-26T06:58:46.293Z,3252.00
2019-05-26T06:59:46.219Z,2952.00
2019-05-26T07:00:46.172Z,3044.00
2019-05-26T07:01:46.124Z,3696.00
2019-05-26T07:02:46.077Z,3980.00
2019-05-26T07:03:46.047Z,3976.00
2019-05-26T07:04:45.974Z,3588.00
2019-05-26T07:05:45.931Z,3448.00
2019-05-26T07:06:45.877Z,3500.00
2019-05-26T07:07:45.831Z,3548.00
2019-05-26T07:08:45.803Z,3816.00
2019-05-26T07:09:45.735Z,3868.00
2019-05-26T07:10:45.685Z,4000.00
2019-05-26T07:11:55.501Z,3672.00
2019-05-26T07:12:45.589Z,3352.00
2019-05-26T07:13:45.559Z,3164.00
2019-05-26T07:14:45.490Z,3924.00
2019-05-26T07:15:45.442Z,4160.00
2019-05-26T07:16:45.394Z,4212.00
2019-05-26T07:17:45.345Z,4304.00
2019-05-26T07:18:45.326Z,4236.00
2019-05-26T07:19:45.249Z,3688.00
2019-05-26T07:20:45.196Z,4212.00
2019-05-26T07:21:45.152Z,4196.00
2019-05-26T07:22:45.102Z,4096.00
2019-05-26T07:23:45.105Z,4048.00
2019-05-26T07:24:45.018Z,3940.00
2019-05-26T07:25:44.955Z,3792.00
2019-05-26T07:26:44.909Z,3996.00
2019-05-26T07:27:44.864Z,4028.00
2019-05-26T07:28:44.813Z,3920.00
2019-05-26T07:29:44.785Z,3624.00
2019-05-26T07:30:44.718Z,3400.00
2019-05-26T07:31:44.671Z,3320.00
2019-05-26T07:32:44.621Z,3452.00
2019-05-26T07:33:44.583Z,3692.00
2019-05-26T07:34:44.546Z,3704.00
2019-05-26T07:35:44.477Z,3680.00
2019-05-26T07:36:44.429Z,3868.00
2019-05-26T07:37:44.378Z,3812.00
2019-05-26T07:38:44.331Z,3664.00
2019-05-26T07:39:44.305Z,4080.00
2019-05-26T07:40:44.234Z,3952.00
2019-05-26T07:41:44.188Z,3008.00
2019-05-26T07:42:44.141Z,4136.00
2019-05-26T07:43:44.089Z,4288.00
2019-05-26T07:44:44.063Z,4476.00
2019-05-26T07:45:44.001Z,4004.00
2019-05-26T07:46:43.947Z,3780.00
2019-05-26T07:47:43.902Z,3340.00
2019-05-26T07:48:43.852Z,3304.00
2019-05-26T07:49:43.826Z,3472.00
2019-05-26T07:50:43.756Z,3588.00
2019-05-26T07:51:43.706Z,3384.00
2019-05-26T07:52:43.660Z,3148.00
2019-05-26T07:53:43.612Z,2192.00
2019-05-26T07:54:43.591Z,2124.00
2019-05-26T07:55:43.519Z,2964.00
2019-05-26T07:56:43.467Z,2368.00
2019-05-26T07:57:43.421Z,3248.00
2019-05-26T07:58:43.374Z,3360.00
2019-05-26T07:59:43.351Z,3396.00
2019-05-26T08:00:43.276Z,2744.00
2019-05-26T08:01:43.232Z,3408.00
2019-05-26T08:02:43.181Z,3352.00
2019-05-26T08:03:43.134Z,3392.00
2019-05-26T08:04:43.109Z,3592.00
2019-05-26T08:05:43.041Z,3708.00
2019-05-26T08:06:42.990Z,3768.00
2019-05-26T08:07:51.023Z,3644.00
2019-05-26T08:08:42.926Z,3760.00
2019-05-26T08:09:42.907Z,3732.00
2019-05-26T08:10:42.833Z,3572.00
2019-05-26T08:11:42.785Z,3608.00
2019-05-26T08:12:42.738Z,3576.00
2019-05-26T08:13:42.694Z,3620.00
2019-05-26T08:14:42.726Z,3416.00
2019-05-26T08:15:42.634Z,3416.00
2019-05-26T08:16:42.549Z,3020.00
2019-05-26T08:17:42.498Z,3244.00
2019-05-26T08:18:42.606Z,3348.00
2019-05-26T08:19:42.430Z,3340.00
2019-05-26T08:20:42.360Z,3352.00
2019-05-26T08:21:42.371Z,3332.00
2019-05-26T08:22:42.332Z,3652.00
2019-05-26T08:23:42.215Z,4944.00
2019-05-26T08:24:42.190Z,4908.00
2019-05-26T08:25:42.171Z,4436.00
2019-05-26T08:26:42.074Z,4052.00
2019-05-26T08:27:42.028Z,5776.00
2019-05-26T08:28:41.980Z,7232.00
2019-05-26T08:29:41.960Z,8128.00
2019-05-26T08:30:41.894Z,7240.00
2019-05-26T08:31:41.834Z,6824.00
2019-05-26T08:32:41.791Z,6204.00
2019-05-26T08:33:41.749Z,5840.00
2019-05-26T08:34:41.724Z,5624.00
2019-05-26T08:35:41.747Z,5856.00
2019-05-26T08:36:41.605Z,5308.00
2019-05-26T08:37:41.565Z,4488.00
2019-05-26T08:38:41.519Z,3780.00
2019-05-26T08:39:41.483Z,3616.00
2019-05-26T08:40:41.428Z,3872.00
2019-05-26T08:41:41.373Z,3936.00
2019-05-26T08:42:44.472Z,4268.00
2019-05-26T08:43:41.276Z,4624.00
2019-05-26T08:44:41.265Z,4756.00
2019-05-26T08:45:41.183Z,5268.00
2019-05-26T08:46:41.241Z,5152.00
2019-05-26T08:47:41.091Z,4892.00
2019-05-26T08:48:41.044Z,4976.00
2019-05-26T08:49:40.996Z,4544.00
2019-05-26T08:50:40.977Z,4472.00
2019-05-26T08:51:40.898Z,4244.00
2019-05-26T08:52:40.858Z,4776.00
2019-05-26T08:53:40.815Z,4924.00
2019-05-26T08:54:40.760Z,4808.00
2019-05-26T08:55:40.742Z,4616.00
2019-05-26T08:56:40.671Z,4532.00
2019-05-26T08:57:40.622Z,4636.00
2019-05-26T08:58:40.577Z,4944.00
2019-05-26T08:59:40.527Z,5004.00
2019-05-26T09:00:40.499Z,5628.00
2019-05-26T09:01:40.434Z,5908.00
2019-05-26T09:02:40.378Z,6412.00
2019-05-26T09:03:40.341Z,6572.00
2019-05-26T09:04:40.292Z,6608.00
2019-05-26T09:05:40.267Z,6956.00
2019-05-26T09:06:40.199Z,7184.00
2019-05-26T09:07:40.154Z,7240.00
2019-05-26T09:08:40.105Z,7260.00
2019-05-26T09:09:40.059Z,7704.00
2019-05-26T09:10:40.034Z,8360.00
2019-05-26T09:11:39.962Z,7968.00
2019-05-26T09:12:39.915Z,7368.00
2019-05-26T09:13:39.867Z,7140.00
2019-05-26T09:14:39.825Z,7096.00
2019-05-26T09:15:39.797Z,6444.00
2019-05-26T09:16:39.726Z,5408.00
2019-05-26T09:17:39.678Z,5600.00
2019-05-26T09:18:39.630Z,5944.00
2019-05-26T09:19:39.587Z,5472.00
2019-05-26T09:20:39.566Z,4452.00
2019-05-26T09:21:39.496Z,3932.00
2019-05-26T09:22:39.448Z,3652.00
2019-05-26T09:23:39.403Z,3752.00
2019-05-26T09:24:39.351Z,3780.00
2019-05-26T09:25:39.331Z,3472.00
2019-05-26T09:26:39.259Z,3056.00
2019-05-26T09:27:39.214Z,2980.00
2019-05-26T09:28:39.187Z,3040.00
2019-05-26T09:29:39.149Z,3076.00
2019-05-26T09:30:39.093Z,3024.00
2019-05-26T09:31:39.022Z,3000.00
2019-05-26T09:32:38.976Z,2960.00
2019-05-26T09:33:38.932Z,3060.00
2019-05-26T09:34:38.880Z,3136.00
2019-05-26T09:35:38.864Z,3004.00
2019-05-26T09:36:38.837Z,2892.00
2019-05-26T09:37:38.745Z,2880.00
2019-05-26T09:38:38.694Z,3056.00
2019-05-26T09:39:38.735Z,3156.00
2019-05-26T09:40:38.624Z,3296.00
2019-05-26T09:41:38.554Z,3308.00
2019-05-26T09:42:38.507Z,3088.00
2019-05-26T09:43:38.536Z,2884.00
2019-05-26T09:44:38.411Z,2904.00
2019-05-26T09:45:38.388Z,2904.00
2019-05-26T09:46:38.325Z,2868.00
2019-05-26T09:47:38.274Z,2956.00
2019-05-26T09:48:38.221Z,3156.00
2019-05-26T09:49:38.175Z,3288.00
2019-05-26T09:50:38.152Z,3460.00
2019-05-26T09:51:38.079Z,3496.00
2019-05-26T09:52:38.043Z,3388.00
2019-05-26T09:53:37.985Z,3424.00
2019-05-26T09:54:37.938Z,3512.00
2019-05-26T09:55:37.915Z,3516.00
2019-05-26T09:56:37.843Z,3572.00
2019-05-26T09:57:37.795Z,3652.00
2019-05-26T09:58:37.754Z,3724.00
2019-05-26T09:59:37.700Z,3676.00
2019-05-26T10:00:37.679Z,3616.00
2019-05-26T10:01:37.605Z,3612.00
2019-05-26T10:02:37.569Z,3696.00
2019-05-26T10:03:37.512Z,3592.00
2019-05-26T10:04:37.465Z,3316.00
2019-05-26T10:05:37.447Z,3316.00
2019-05-26T10:06:37.372Z,3352.00
2019-05-26T10:07:37.321Z,3168.00
2019-05-26T10:08:37.276Z,3384.00
2019-05-26T10:09:37.226Z,3620.00
2019-05-26T10:10:37.204Z,3572.00
2019-05-26T10:11:37.129Z,3780.00
2019-05-26T10:12:37.085Z,3944.00
2019-05-26T10:13:37.038Z,3576.00
2019-05-26T10:14:36.990Z,3420.00
2019-05-26T10:15:36.980Z,3324.00
2019-05-26T10:16:36.919Z,3296.00
2019-05-26T10:17:36.878Z,3416.00
2019-05-26T10:18:36.802Z,3864.00
2019-05-26T10:19:36.761Z,4500.00
2019-05-26T10:20:36.703Z,4940.00
2019-05-26T10:21:36.682Z,5136.00
2019-05-26T10:22:36.621Z,6140.00
2019-05-26T10:23:36.566Z,6652.00
2019-05-26T10:24:36.512Z,5740.00
2019-05-26T10:25:36.470Z,5084.00
2019-05-26T10:26:36.441Z,4968.00
2019-05-26T10:27:36.370Z,5504.00
2019-05-26T10:28:36.322Z,5912.00
2019-05-26T10:29:36.278Z,5552.00
2019-05-26T10:30:36.233Z,5384.00
2019-05-26T10:31:36.209Z,6228.00
2019-05-26T10:32:36.134Z,6436.00
2019-05-26T10:33:36.089Z,5988.00
2019-05-26T10:34:36.041Z,6600.00
2019-05-26T10:35:35.992Z,6336.00
2019-05-26T10:36:35.972Z,6384.00
2019-05-26T10:37:35.896Z,6332.00
2019-05-26T10:38:35.849Z,6600.00
2019-05-26T10:39:35.805Z,5804.00
2019-05-26T10:40:35.755Z,6700.00
2019-05-26T10:41:35.734Z,6964.00
2019-05-26T10:42:35.660Z,7128.00
2019-05-26T10:43:46.722Z,7696.00
2019-05-26T10:44:35.593Z,7764.00
2019-05-26T10:45:35.523Z,7884.00
2019-05-26T10:46:35.501Z,6764.00
2019-05-26T10:47:35.441Z,6264.00
2019-05-26T10:48:35.383Z,6352.00
2019-05-26T10:49:35.338Z,7244.00
2019-05-26T10:50:35.286Z,7184.00
2019-05-26T10:51:35.260Z,7992.00
2019-05-26T10:52:35.193Z,7796.00
2019-05-26T10:53:35.146Z,7708.00
2019-05-26T10:54:35.098Z,8128.00
2019-05-26T10:55:35.051Z,7204.00
2019-05-26T10:56:35.028Z,7276.00
2019-05-26T10:57:34.956Z,8456.00
2019-05-26T10:58:34.915Z,7680.00
2019-05-26T10:59:34.861Z,8508.00
2019-05-26T11:00:34.830Z,7320.00
2019-05-26T11:01:34.835Z,6768.00
2019-05-26T11:02:34.721Z,6556.00
2019-05-26T11:03:34.677Z,7308.00
2019-05-26T11:04:34.633Z,8060.00
2019-05-26T11:05:34.581Z,8864.00
2019-05-26T11:06:34.572Z,8432.00
2019-05-26T11:07:34.491Z,7920.00
2019-05-26T11:08:34.448Z,8796.00
2019-05-26T11:09:34.400Z,8720.00
2019-05-26T11:10:34.358Z,9068.00
2019-05-26T11:11:34.335Z,9524.00
2019-05-26T11:12:34.258Z,8860.00
2019-05-26T11:13:34.213Z,7948.00
2019-05-26T11:14:34.171Z,7504.00
2019-05-26T11:15:34.127Z,7508.00
2019-05-26T11:16:34.103Z,7512.00
2019-05-26T11:17:34.030Z,6652.00
2019-05-26T11:18:33.981Z,6696.00
2019-05-26T11:19:33.942Z,5936.00
2019-05-26T11:20:33.902Z,5120.00
2019-05-26T11:21:33.871Z,5644.00
2019-05-26T11:22:33.800Z,6232.00
2019-05-26T11:23:33.756Z,5728.00
2019-05-26T11:24:33.719Z,5340.00
2019-05-26T11:25:33.664Z,6688.00
2019-05-26T11:26:33.635Z,6796.00
2019-05-26T11:27:33.573Z,7548.00
2019-05-26T11:28:33.524Z,7944.00
2019-05-26T11:29:33.480Z,6832.00
2019-05-26T11:30:33.441Z,6588.00
2019-05-26T11:31:33.409Z,6764.00
2019-05-26T11:32:33.338Z,6368.00
2019-05-26T11:33:33.296Z,6028.00
2019-05-26T11:34:33.252Z,5940.00
2019-05-26T11:35:33.230Z,6640.00
2019-05-26T11:36:33.198Z,7088.00
2019-05-26T11:37:33.106Z,6528.00
2019-05-26T11:38:33.830Z,6440.00
2019-05-26T11:39:33.018Z,6760.00
2019-05-26T11:40:32.975Z,5956.00
2019-05-26T11:41:32.943Z,5872.00
2019-05-26T11:42:32.880Z,5620.00
2019-05-26T11:43:32.836Z,6052.00
2019-05-26T11:44:32.790Z,7060.00
2019-05-26T11:45:32.740Z,8464.00
2019-05-26T11:46:32.719Z,8424.00
2019-05-26T11:47:32.643Z,8076.00
2019-05-26T11:48:32.605Z,8200.00
2019-05-26T11:49:32.557Z,8064.00
2019-05-26T11:50:32.588Z,7924.00
2019-05-26T11:51:32.491Z,7704.00
2019-05-26T11:52:32.418Z,7580.00
2019-05-26T11:53:32.371Z,8012.00
2019-05-26T11:54:34.537Z,8236.00
2019-05-26T11:55:32.283Z,8572.00
2019-05-26T11:56:32.261Z,8456.00
2019-05-26T11:57:32.186Z,7856.00
2019-05-26T11:58:32.142Z,7712.00
2019-05-26T11:59:32.100Z,7048.00
2019-05-26T12:00:32.052Z,7640.00
2019-05-26T12:01:32.024Z,8064.00
2019-05-26T12:02:31.966Z,8240.00
2019-05-26T12:03:31.913Z,7848.00
2019-05-26T12:04:31.870Z,6732.00
2019-05-26T12:05:31.819Z,7284.00
2019-05-26T12:06:31.791Z,8484.00
2019-05-26T12:07:31.733Z,8584.00
2019-05-26T12:08:31.689Z,8612.00
2019-05-26T12:09:31.633Z,8608.00
2019-05-26T12:10:31.603Z,8476.00
2019-05-26T12:11:31.571Z,8824.00
2019-05-26T12:12:31.503Z,8500.00
2019-05-26T12:13:31.460Z,8496.00
2019-05-26T12:14:35.215Z,8484.00
2019-05-26T12:15:31.369Z,8396.00
2019-05-26T12:16:31.365Z,8400.00
2019-05-26T12:17:31.276Z,7996.00
2019-05-26T12:18:31.231Z,8140.00
2019-05-26T12:19:31.184Z,7960.00
2019-05-26T12:20:31.134Z,8156.00
2019-05-26T12:21:31.100Z,8232.00
2019-05-26T12:22:31.069Z,8560.00
2019-05-26T12:23:31.005Z,8336.00
2019-05-26T12:24:30.961Z,7444.00
2019-05-26T12:25:30.911Z,6964.00